Time;durP1;ratioP1;P1;durP2;ratioP2;P2;SDS_P1;SDS_P2;PMS_P1;PMS_P2;Temp;Humidity;BMP_temperature;BMP_pressure;BME280_temperature;BME280_humidity;BME280_pressure;Samples;Min_cycle;Max_cycle;Signal;HPM_P1;HPM_P2
2022/12/24 00:00:58;;;;;;;13.93;11.80;;;11.40;99.90;;;;;;1944891;72;22286;-89
2022/12/24 00:03:49;;;;;;;13.15;11.60;;;11.40;99.90;;;;;;1939448;73;21163;-88
2022/12/24 00:06:41;;;;;;;14.60;12.55;;;11.40;99.90;;;;;;1928881;73;21181;-88
2022/12/24 00:09:32;;;;;;;16.27;13.00;;;11.40;99.90;;;;;;1919451;73;21058;-88
2022/12/24 00:12:23;;;;;;;14.25;11.97;;;11.40;99.90;;;;;;1929234;73;21557;-87
2022/12/24 00:15:15;;;;;;;14.90;12.78;;;11.30;99.90;;;;;;1925662;73;21095;-88
2022/12/24 00:20:48;;;;;;;14.30;11.85;;;11.30;99.90;;;;;;1926835;72;22224;-89
2022/12/24 00:26:20;;;;;;;13.78;11.45;;;11.20;99.90;;;;;;1944379;72;22146;-89
2022/12/24 00:29:13;;;;;;;13.93;11.63;;;11.30;99.90;;;;;;1902751;74;21068;-89
2022/12/24 00:32:08;;;;;;;12.70;11.20;;;11.30;99.90;;;;;;1880596;75;21162;-87
2022/12/24 00:34:58;;;;;;;12.68;11.03;;;11.30;99.90;;;;;;1876059;75;21098;-87
2022/12/24 00:40:31;;;;;;;12.80;11.15;;;11.30;99.90;;;;;;1947636;72;22264;-89
2022/12/24 00:43:22;;;;;;;12.60;11.12;;;11.30;99.90;;;;;;1916530;74;21056;-88
2022/12/24 00:46:17;;;;;;;12.75;10.98;;;11.30;99.90;;;;;;1912563;74;21194;-88
2022/12/24 00:51:51;;;;;;;13.43;11.35;;;11.30;99.90;;;;;;1929840;72;22261;-88
2022/12/24 00:54:42;;;;;;;12.73;11.35;;;11.30;99.90;;;;;;1882694;75;21122;-87
2022/12/24 00:57:34;;;;;;;12.55;11.12;;;11.20;99.90;;;;;;1892052;75;21128;-87
2022/12/24 01:00:28;;;;;;;12.82;11.50;;;11.10;99.90;;;;;;1896880;75;21076;-87
2022/12/24 01:03:20;;;;;;;15.55;11.93;;;11.10;99.90;;;;;;1900502;75;21208;-87
2022/12/24 01:08:53;;;;;;;13.25;11.63;;;11.20;99.90;;;;;;1954399;72;22298;-89
2022/12/24 01:12:03;;;;;;;13.20;11.38;;;11.20;99.90;;;;;;1918945;74;21097;-89
2022/12/24 01:14:54;;;;;;;15.10;11.88;;;11.30;99.90;;;;;;1887996;74;21563;-89
2022/12/24 01:20:32;;;;;;;13.68;11.48;;;11.30;99.90;;;;;;1952377;72;22194;-89
2022/12/24 01:23:24;;;;;;;12.63;10.88;;;11.30;99.90;;;;;;1930878;73;21094;-88
2022/12/24 01:26:15;;;;;;;11.33;10.23;;;11.30;99.90;;;;;;1919313;73;21222;-88
2022/12/24 01:29:07;;;;;;;10.78;9.58;;;11.30;99.90;;;;;;1923730;73;21278;-88
2022/12/24 01:34:46;;;;;;;10.95;9.28;;;11.30;99.90;;;;;;1960633;72;22186;-89
2022/12/24 01:37:37;;;;;;;10.75;9.68;;;11.30;99.90;;;;;;1915402;74;21047;-88
2022/12/24 01:46:20;;;;;;;10.13;9.13;;;11.30;99.90;;;;;;1957930;72;22221;-90
2022/12/24 01:51:53;;;;;;;10.58;9.48;;;11.30;99.90;;;;;;1947705;72;22232;-88
2022/12/24 01:54:48;;;;;;;10.63;9.53;;;11.30;99.90;;;;;;1893125;75;21583;-88
2022/12/24 02:00:20;;;;;;;9.60;8.60;;;11.20;99.90;;;;;;1996572;70;22229;-89
2022/12/24 02:05:52;;;;;;;11.15;9.98;;;11.30;99.90;;;;;;1936238;72;22287;-89
2022/12/24 02:08:44;;;;;;;10.55;9.23;;;11.30;99.90;;;;;;1884866;75;21205;-88
2022/12/24 02:14:16;;;;;;;10.95;9.60;;;11.30;99.90;;;;;;1933237;72;22629;-87
2022/12/24 02:20:33;;;;;;;9.73;8.73;;;11.30;99.90;;;;;;1939682;72;22754;-89
2022/12/24 02:23:41;;;;;;;9.50;8.50;;;11.20;99.90;;;;;;1894567;75;21224;-88
2022/12/24 02:26:43;;;;;;;10.10;8.80;;;11.20;99.90;;;;;;1906759;75;21205;-87
2022/12/24 02:33:02;;;;;;;12.82;11.57;;;11.30;99.90;;;;;;1921858;72;28072;-89
2022/12/24 02:35:56;;;;;;;11.18;9.70;;;11.50;99.90;;;;;;1846642;77;21135;-88
2022/12/24 02:38:53;;;;;;;9.90;8.90;;;11.40;99.90;;;;;;1904020;73;21184;-87
2022/12/24 02:44:33;;;;;;;9.15;8.25;;;11.40;99.90;;;;;;1949146;72;22192;-87
2022/12/24 02:50:10;;;;;;;9.43;8.18;;;11.30;99.90;;;;;;1955295;72;22279;-89
2022/12/24 02:55:44;;;;;;;10.95;9.85;;;11.30;99.90;;;;;;1950662;72;22613;-87
2022/12/24 03:01:22;;;;;;;11.40;9.98;;;11.30;99.90;;;;;;1946194;72;22154;-89
2022/12/24 03:06:57;;;;;;;12.35;11.15;;;11.20;99.90;;;;;;1934420;72;22157;-90
2022/12/24 03:09:58;;;;;;;11.40;10.25;;;11.20;99.90;;;;;;1890626;75;21068;-89
2022/12/24 03:12:53;;;;;;;11.40;9.75;;;11.20;99.90;;;;;;1887536;75;21169;-89
2022/12/24 03:15:46;;;;;;;11.25;9.88;;;11.20;99.90;;;;;;1904680;75;21127;-88
2022/12/24 03:18:40;;;;;;;9.95;8.90;;;11.20;99.90;;;;;;1885067;75;21202;-88
2022/12/24 03:21:34;;;;;;;9.33;8.33;;;11.30;99.90;;;;;;1905416;75;21200;-89
2022/12/24 03:29:57;;;;;;;8.83;7.62;;;11.30;99.90;;;;;;1915893;72;22278;-89
2022/12/24 03:35:28;;;;;;;8.73;7.80;;;11.40;99.90;;;;;;1949597;72;22257;-89
2022/12/24 03:38:20;;;;;;;8.43;7.62;;;11.40;99.90;;;;;;1887998;75;21175;-89
2022/12/24 03:41:11;;;;;;;7.90;7.10;;;11.40;99.90;;;;;;1875222;75;21102;-88
2022/12/24 03:44:03;;;;;;;7.72;7.03;;;11.50;99.90;;;;;;1886125;75;21064;-88
2022/12/24 03:49:45;;;;;;;8.00;7.20;;;11.40;99.90;;;;;;1942938;72;22182;-89
2022/12/24 03:52:37;;;;;;;7.95;7.03;;;11.40;99.90;;;;;;1915776;74;21197;-88
2022/12/24 03:55:28;;;;;;;7.45;6.75;;;11.40;99.90;;;;;;1913510;74;21132;-88
2022/12/24 03:58:19;;;;;;;8.68;7.35;;;11.40;99.90;;;;;;1904840;75;21122;-90
2022/12/24 04:01:11;;;;;;;8.08;7.10;;;11.40;99.90;;;;;;1902730;74;21131;-88
2022/12/24 04:04:03;;;;;;;7.53;6.80;;;11.40;99.90;;;;;;1925325;74;21056;-90
2022/12/24 04:14:58;;;;;;;7.75;6.95;;;11.40;99.90;;;;;;1937814;72;22257;-88
2022/12/24 04:17:52;;;;;;;7.75;6.95;;;11.40;99.90;;;;;;1878837;75;21149;-90
2022/12/24 04:20:44;;;;;;;7.10;6.40;;;11.40;99.90;;;;;;1899886;75;21228;-88
2022/12/24 04:23:37;;;;;;;7.40;6.70;;;11.40;99.90;;;;;;1903280;75;21083;-87
2022/12/24 04:26:29;;;;;;;8.25;7.45;;;11.40;99.90;;;;;;1872484;75;21591;-88
2022/12/24 04:29:21;;;;;;;7.87;7.17;;;11.40;99.90;;;;;;1879890;75;21098;-88
2022/12/24 04:32:12;;;;;;;7.97;7.17;;;11.40;99.90;;;;;;1873485;75;21187;-88
2022/12/24 04:35:04;;;;;;;7.67;6.90;;;11.40;99.90;;;;;;1899849;75;21106;-88
2022/12/24 04:37:55;;;;;;;7.50;6.80;;;11.40;99.90;;;;;;1898031;75;21111;-88
2022/12/24 04:40:47;;;;;;;7.72;6.92;;;11.40;99.90;;;;;;1889328;75;21115;-88
2022/12/24 04:43:38;;;;;;;7.62;6.92;;;11.40;99.90;;;;;;1904023;75;21124;-88
2022/12/24 04:46:31;;;;;;;6.22;5.62;;;11.40;99.90;;;;;;1899660;75;21075;-88
2022/12/24 04:49:23;;;;;;;7.08;6.37;;;11.50;99.90;;;;;;1896119;75;21099;-89
2022/12/24 04:54:56;;;;;;;6.95;6.25;;;11.50;99.90;;;;;;1940910;72;22145;-89
2022/12/24 04:57:48;;;;;;;7.85;7.08;;;11.50;99.90;;;;;;1898179;75;21112;-89
2022/12/24 05:00:41;;;;;;;8.18;7.30;;;11.50;99.90;;;;;;1884960;75;21623;-88
2022/12/24 05:06:32;;;;;;;9.05;8.15;;;11.60;99.90;;;;;;1940023;72;22189;-89
2022/12/24 05:09:23;;;;;;;8.10;7.22;;;11.60;99.90;;;;;;1918971;74;21215;-88
2022/12/24 05:12:15;;;;;;;7.85;7.05;;;11.50;99.90;;;;;;1893355;74;21094;-90
2022/12/24 05:15:08;;;;;;;6.90;6.20;;;11.50;99.90;;;;;;1917056;75;21098;-88
2022/12/24 05:17:59;;;;;;;6.87;6.28;;;11.60;99.90;;;;;;1901865;75;21106;-88
2022/12/24 05:20:51;;;;;;;7.72;7.03;;;11.60;99.90;;;;;;1896524;75;21635;-88
2022/12/24 05:29:31;;;;;;;7.03;6.33;;;11.60;99.90;;;;;;1954381;72;22875;-89
2022/12/24 05:37:49;;;;;;;6.40;5.80;;;11.50;99.90;;;;;;1948455;73;22177;-90
2022/12/24 05:40:41;;;;;;;7.55;6.75;;;11.50;99.90;;;;;;1906462;74;21190;-88
2022/12/24 05:43:32;;;;;;;8.78;7.20;;;11.50;99.90;;;;;;1904577;74;21137;-89
2022/12/24 05:46:25;;;;;;;7.90;7.10;;;11.60;99.90;;;;;;1902406;74;21082;-90
2022/12/24 05:49:16;;;;;;;7.03;6.33;;;11.60;99.90;;;;;;1904421;74;21184;-90
2022/12/24 05:54:50;;;;;;;7.95;6.58;;;11.60;99.90;;;;;;1945986;72;22221;-87
2022/12/24 05:57:42;;;;;;;6.67;5.97;;;11.60;99.90;;;;;;1894986;75;21113;-88
2022/12/24 06:00:33;;;;;;;6.95;6.20;;;11.70;99.90;;;;;;1874905;75;21102;-87
2022/12/24 06:03:25;;;;;;;6.55;5.85;;;11.70;99.90;;;;;;1898992;75;21157;-88
2022/12/24 06:06:19;;;;;;;6.50;5.90;;;11.70;99.90;;;;;;1881052;75;21160;-88
2022/12/24 06:11:51;;;;;;;6.40;5.80;;;11.70;99.90;;;;;;1933475;72;22211;-90
2022/12/24 06:14:42;;;;;;;6.50;5.90;;;11.70;99.90;;;;;;1917671;74;21107;-88
2022/12/24 06:17:33;;;;;;;6.25;5.62;;;11.60;99.90;;;;;;1940105;73;21072;-88
2022/12/24 06:20:25;;;;;;;6.55;5.78;;;11.50;99.90;;;;;;1922224;73;21089;-88
2022/12/24 06:23:16;;;;;;;6.70;6.00;;;11.50;99.90;;;;;;1925115;73;21159;-88
2022/12/24 06:26:11;;;;;;;6.97;5.70;;;11.50;99.90;;;;;;1931893;73;21027;-88
2022/12/24 06:29:02;;;;;;;6.62;6.03;;;11.50;99.90;;;;;;1928215;73;21038;-88
2022/12/24 06:34:33;;;;;;;6.85;6.17;;;11.50;99.90;;;;;;1951486;72;22196;-88
2022/12/24 06:40:05;;;;;;;6.20;5.60;;;11.40;99.90;;;;;;1918199;72;22269;-90
2022/12/24 06:42:57;;;;;;;6.05;5.45;;;11.40;99.90;;;;;;1908264;75;21107;-88
2022/12/24 06:45:49;;;;;;;5.83;5.22;;;11.40;99.90;;;;;;1917230;74;21102;-88
2022/12/24 06:48:49;;;;;;;5.55;5.05;;;11.40;99.90;;;;;;1897288;75;21090;-88
2022/12/24 06:54:21;;;;;;;5.65;5.15;;;11.50;99.90;;;;;;1932934;72;22217;-89
2022/12/24 06:57:12;;;;;;;6.58;5.90;;;11.50;99.90;;;;;;1904261;74;21098;-90
2022/12/24 07:00:06;;;;;;;6.62;6.03;;;11.40;99.90;;;;;;1902026;75;21196;-88
2022/12/24 07:02:57;;;;;;;6.87;6.28;;;11.40;99.90;;;;;;1916764;75;21098;-89
2022/12/24 07:05:49;;;;;;;7.97;6.35;;;11.40;99.90;;;;;;1910388;75;21067;-88
2022/12/24 07:08:40;;;;;;;7.00;6.30;;;11.40;99.90;;;;;;1885189;75;21134;-88
2022/12/24 07:11:32;;;;;;;8.00;6.10;;;11.40;99.90;;;;;;1901969;75;21134;-88
2022/12/24 07:14:23;;;;;;;6.12;5.00;;;11.40;99.90;;;;;;1884996;75;21132;-89
2022/12/24 07:17:14;;;;;;;5.00;4.55;;;11.40;99.90;;;;;;1844618;77;21099;-89
2022/12/24 07:20:10;;;;;;;5.80;5.30;;;11.50;99.90;;;;;;1907858;75;21091;-88
2022/12/24 07:25:44;;;;;;;5.75;5.15;;;11.50;99.90;;;;;;1931581;72;22182;-89
2022/12/24 07:28:35;;;;;;;6.20;5.60;;;11.50;99.90;;;;;;1917469;73;21155;-87
2022/12/24 07:31:27;;;;;;;6.95;5.90;;;11.60;99.90;;;;;;1896403;73;21193;-86
2022/12/24 07:34:18;;;;;;;6.22;5.20;;;11.50;99.90;;;;;;1892296;75;21577;-74
2022/12/24 07:37:10;;;;;;;6.67;5.90;;;11.50;99.90;;;;;;1895158;73;21117;-75
2022/12/24 07:40:01;;;;;;;7.28;6.33;;;11.50;99.90;;;;;;1857126;77;21161;-74
2022/12/24 07:42:53;;;;;;;7.15;6.45;;;11.50;99.90;;;;;;1895448;75;21146;-74
2022/12/24 07:45:44;;;;;;;6.80;6.10;;;11.50;99.90;;;;;;1914386;73;21091;-76
2022/12/24 07:48:36;;;;;;;7.62;6.83;;;11.50;99.90;;;;;;1919351;73;21097;-74
2022/12/24 07:51:29;;;;;;;7.42;6.72;;;11.50;99.90;;;;;;1917668;73;21054;-74
2022/12/24 07:54:20;;;;;;;7.80;7.00;;;11.50;99.90;;;;;;1895994;73;21163;-74
2022/12/24 07:57:12;;;;;;;8.05;6.92;;;11.50;99.90;;;;;;1926430;73;21123;-74
2022/12/24 08:00:05;;;;;;;8.85;7.42;;;11.50;99.90;;;;;;1893937;75;21114;-74
2022/12/24 08:02:58;;;;;;;8.65;7.35;;;11.50;99.90;;;;;;1921263;73;21043;-74
2022/12/24 08:05:52;;;;;;;8.10;7.30;;;11.50;99.90;;;;;;1912579;73;21090;-74
2022/12/24 08:08:43;;;;;;;8.03;7.22;;;11.50;99.90;;;;;;1909224;73;21624;-74
2022/12/24 08:11:45;;;;;;;8.63;7.42;;;11.60;99.90;;;;;;1903302;73;21173;-75
2022/12/24 08:14:38;;;;;;;7.90;7.12;;;11.60;99.90;;;;;;1775228;80;21141;-74
2022/12/24 08:17:29;;;;;;;7.80;6.70;;;11.50;99.90;;;;;;1817908;79;21252;-74
2022/12/24 08:20:22;;;;;;;7.80;7.00;;;11.50;99.90;;;;;;1817953;77;21134;-74
2022/12/24 08:23:14;;;;;;;8.28;6.50;;;11.60;99.90;;;;;;1809437;79;21123;-75
2022/12/24 08:26:07;;;;;;;6.83;6.08;;;11.70;99.90;;;;;;1816625;78;21136;-74
2022/12/24 08:34:17;;;;;;;7.05;6.03;;;11.90;99.90;;;;;;1945785;72;22209;-75
2022/12/24 08:39:49;;;;;;;7.17;6.47;;;11.90;99.90;;;;;;1938791;72;22221;-75
2022/12/24 08:42:40;;;;;;;7.28;6.58;;;11.90;99.90;;;;;;1897234;75;21202;-74
2022/12/24 08:45:32;;;;;;;8.28;7.47;;;11.90;99.90;;;;;;1892976;75;21087;-74
2022/12/24 08:48:25;;;;;;;8.33;7.50;;;11.90;99.90;;;;;;1898374;75;21172;-74
2022/12/24 08:51:18;;;;;;;8.33;7.47;;;11.90;99.90;;;;;;1905779;75;21884;-75
2022/12/24 08:54:09;;;;;;;8.18;7.30;;;12.00;99.90;;;;;;1888894;75;21058;-76
2022/12/24 08:59:39;;;;;;;8.78;7.85;;;12.00;99.90;;;;;;1939704;72;22753;-75
2022/12/24 09:02:31;;;;;;;8.40;7.42;;;12.00;99.90;;;;;;1915539;75;21213;-75
2022/12/24 09:05:24;;;;;;;8.38;7.55;;;12.00;99.90;;;;;;1917070;75;21067;-74
2022/12/24 09:08:16;;;;;;;8.05;7.35;;;12.00;99.90;;;;;;1903496;75;21093;-75
2022/12/24 09:11:09;;;;;;;8.30;7.45;;;12.10;99.90;;;;;;1895800;75;21114;-76
2022/12/24 09:14:00;;;;;;;7.87;7.17;;;12.10;99.90;;;;;;1915527;75;21554;-75
2022/12/24 09:16:52;;;;;;;8.43;7.45;;;12.20;99.90;;;;;;1909032;75;21164;-75
2022/12/24 09:19:44;;;;;;;7.92;7.12;;;12.20;99.90;;;;;;1908922;75;21062;-78
2022/12/24 09:22:37;;;;;;;7.70;7.00;;;12.30;99.90;;;;;;1905412;74;21106;-74
2022/12/24 09:25:28;;;;;;;8.13;7.33;;;12.30;99.90;;;;;;1914000;75;21082;-74
2022/12/24 09:28:19;;;;;;;8.55;7.45;;;12.40;99.90;;;;;;1908703;75;21180;-75
2022/12/24 09:31:12;;;;;;;8.45;7.65;;;12.40;99.90;;;;;;1907656;74;21119;-75
2022/12/24 09:36:45;;;;;;;8.15;7.35;;;12.50;99.90;;;;;;1959392;72;22172;-75
2022/12/24 09:39:36;;;;;;;8.10;7.30;;;12.50;99.90;;;;;;1918792;73;21184;-76
2022/12/24 09:45:13;;;;;;;8.18;7.37;;;12.60;99.90;;;;;;1932305;72;22186;-77
2022/12/24 09:50:46;;;;;;;8.15;7.35;;;12.60;99.90;;;;;;1933405;72;22273;-77
2022/12/24 09:56:24;;;;;;;8.95;7.95;;;12.70;99.90;;;;;;1943012;72;22204;-76
2022/12/24 09:59:18;;;;;;;8.20;7.40;;;12.80;99.90;;;;;;1934811;73;21163;-82
2022/12/24 10:04:51;;;;;;;7.20;6.03;;;12.90;99.90;;;;;;1940610;72;22234;-82
2022/12/24 10:10:29;;;;;;;6.08;5.47;;;13.00;99.90;;;;;;1933748;72;22213;-81
2022/12/24 10:16:04;;;;;;;7.00;6.30;;;13.10;99.90;;;;;;1962567;72;22254;-81
2022/12/24 10:19:01;;;;;;;6.83;6.12;;;13.10;99.90;;;;;;1946476;73;21094;-80
2022/12/24 10:24:40;;;;;;;7.20;6.53;;;13.20;99.90;;;;;;1948925;72;22236;-81
2022/12/24 10:27:36;;;;;;;7.30;6.58;;;13.20;99.90;;;;;;1900427;75;21128;-81
2022/12/24 10:30:28;;;;;;;7.87;7.08;;;13.20;99.90;;;;;;1914791;75;21154;-81
2022/12/24 10:33:22;;;;;;;7.45;6.70;;;13.20;99.90;;;;;;1917241;74;21168;-81
2022/12/24 10:36:17;;;;;;;7.83;7.03;;;13.30;99.90;;;;;;1885495;75;21734;-81
2022/12/24 10:39:13;;;;;;;8.30;7.50;;;13.30;99.90;;;;;;1901982;75;21094;-80
2022/12/24 10:42:07;;;;;;;8.35;6.60;;;13.30;99.90;;;;;;1896884;75;21052;-77
2022/12/24 10:45:02;;;;;;;8.38;7.47;;;13.30;99.90;;;;;;1901940;73;21141;-77
2022/12/24 10:50:34;;;;;;;7.00;6.30;;;13.40;99.90;;;;;;1946757;72;22157;-81
2022/12/24 10:53:30;;;;;;;8.40;7.50;;;13.40;99.90;;;;;;1896827;75;21143;-82
2022/12/24 10:56:22;;;;;;;7.75;7.03;;;13.40;99.90;;;;;;1894724;75;21161;-80
2022/12/24 10:59:27;;;;;;;10.55;7.28;;;13.50;99.90;;;;;;1906876;75;21626;-82
2022/12/24 11:02:29;;;;;;;10.75;7.85;;;13.60;99.90;;;;;;1893843;73;21183;-81
2022/12/24 11:05:32;;;;;;;8.68;7.35;;;13.60;99.90;;;;;;1897299;75;21168;-81
2022/12/24 11:08:25;;;;;;;8.25;7.47;;;13.70;99.90;;;;;;1884086;76;21110;-81
2022/12/24 11:11:19;;;;;;;8.33;7.42;;;13.80;99.90;;;;;;1897460;75;21082;-80
2022/12/24 11:14:17;;;;;;;7.10;6.40;;;13.80;99.90;;;;;;1908521;75;21121;-81
2022/12/24 11:17:11;;;;;;;6.55;5.87;;;13.90;99.90;;;;;;1910215;75;21087;-81
2022/12/24 11:22:44;;;;;;;5.53;5.00;;;14.00;99.90;;;;;;1959158;72;22700;-81
2022/12/24 11:25:39;;;;;;;4.50;3.90;;;14.10;99.90;;;;;;1917003;75;21550;-82
2022/12/24 11:28:34;;;;;;;5.97;4.90;;;14.10;99.90;;;;;;1921760;73;21072;-81
2022/12/24 11:31:26;;;;;;;5.12;4.62;;;14.20;99.90;;;;;;1928368;74;21086;-81
2022/12/24 11:34:26;;;;;;;6.72;5.53;;;14.30;99.90;;;;;;1931041;73;21079;-82
2022/12/24 11:37:21;;;;;;;5.42;4.70;;;14.20;99.90;;;;;;1918319;75;21160;-82
2022/12/24 11:40:22;;;;;;;5.55;4.67;;;14.20;99.90;;;;;;1934411;73;21160;-81
2022/12/24 11:46:04;;;;;;;6.45;5.50;;;14.10;99.90;;;;;;1947594;72;22281;-82
2022/12/24 11:49:11;;;;;;;5.20;4.70;;;14.10;99.90;;;;;;1915128;73;21213;-82
2022/12/24 11:55:13;;;;;;;7.17;4.70;;;14.10;99.90;;;;;;1932272;72;22240;-83
2022/12/24 11:58:11;;;;;;;5.72;4.17;;;14.10;99.90;;;;;;1899348;75;21091;-82
2022/12/24 12:01:06;;;;;;;6.58;5.40;;;14.10;99.90;;;;;;1892903;75;21082;-81
2022/12/24 12:04:02;;;;;;;6.72;5.05;;;14.20;99.90;;;;;;1891172;75;21203;-82
2022/12/24 12:06:57;;;;;;;5.80;5.20;;;14.30;99.90;;;;;;1891742;75;21157;-82
2022/12/24 12:09:53;;;;;;;5.80;5.15;;;14.40;99.90;;;;;;1902252;75;21173;-82
2022/12/24 12:15:28;;;;;;;6.30;5.15;;;14.30;99.90;;;;;;1919547;72;22225;-85
2022/12/24 12:21:04;;;;;;;4.75;4.25;;;14.40;99.90;;;;;;1945894;72;22180;-84
2022/12/24 12:23:59;;;;;;;4.92;4.42;;;14.50;99.90;;;;;;1924915;73;21348;-84
2022/12/24 12:26:56;;;;;;;5.67;4.55;;;14.50;99.90;;;;;;1916939;73;21114;-81
2022/12/24 12:32:30;;;;;;;5.42;4.62;;;14.50;99.90;;;;;;1941542;72;22653;-85
2022/12/24 12:41:03;;;;;;;4.83;4.17;;;14.50;99.90;;;;;;1939492;72;22385;-86
2022/12/24 12:46:43;;;;;;;3.80;3.05;;;14.60;99.90;;;;;;1932712;72;22254;-84
2022/12/24 12:49:40;;;;;;;3.00;2.70;;;14.60;99.90;;;;;;1900951;75;21103;-84
2022/12/24 12:52:38;;;;;;;3.30;2.50;;;14.70;99.90;;;;;;1906949;75;21140;-85
2022/12/24 12:55:39;;;;;;;3.42;2.92;;;14.70;99.90;;;;;;1904831;74;21210;-84
2022/12/24 12:58:33;;;;;;;4.33;2.62;;;14.80;99.90;;;;;;1900160;74;21168;-83
2022/12/24 13:04:59;;;;;;;3.98;1.85;;;14.90;99.90;;;;;;1944270;72;22230;-84
2022/12/24 13:08:14;;;;;;;2.55;2.25;;;14.80;99.90;;;;;;1904059;75;21126;-83
2022/12/24 13:11:19;;;;;;;2.85;1.90;;;14.80;99.90;;;;;;1908789;75;21102;-80
2022/12/24 13:18:08;;;;;;;3.05;1.95;;;14.90;99.90;;;;;;1945259;72;22633;-81
2022/12/24 13:20:59;;;;;;;2.37;1.87;;;15.00;99.90;;;;;;1903737;75;21145;-80
2022/12/24 13:23:51;;;;;;;2.47;1.82;;;15.00;99.90;;;;;;1909560;75;21078;-80
2022/12/24 13:26:43;;;;;;;4.30;2.05;;;15.10;99.90;;;;;;1886115;75;21102;-80
2022/12/24 13:29:52;;;;;;;2.40;2.12;;;15.10;99.90;;;;;;1889507;75;21109;-80
2022/12/24 13:32:52;;;;;;;3.17;2.30;;;15.20;99.90;;;;;;1884665;75;21569;-79
2022/12/24 13:36:03;;;;;;;3.70;2.20;;;15.20;99.90;;;;;;1898886;75;21598;-80
2022/12/24 13:41:58;;;;;;;2.50;1.80;;;15.10;99.90;;;;;;1945581;72;22156;-81
2022/12/24 13:44:50;;;;;;;3.20;2.17;;;15.10;99.90;;;;;;1922939;73;21123;-79
2022/12/24 13:47:42;;;;;;;3.40;2.10;;;15.20;99.90;;;;;;1926619;73;21089;-80
2022/12/24 13:50:39;;;;;;;2.92;2.50;;;15.20;99.90;;;;;;1916820;75;21565;-80
2022/12/24 13:53:35;;;;;;;3.40;2.83;;;15.20;99.90;;;;;;1919295;73;21101;-79
2022/12/24 13:56:29;;;;;;;3.40;3.10;;;15.30;99.90;;;;;;1914670;75;21103;-79
2022/12/24 13:59:28;;;;;;;3.62;3.30;;;15.30;99.90;;;;;;1933968;73;21101;-80
2022/12/24 14:02:22;;;;;;;4.00;2.90;;;15.40;99.90;;;;;;1923195;73;21102;-79
2022/12/24 14:05:21;;;;;;;4.90;3.25;;;15.40;99.90;;;;;;1939594;73;21137;-80
2022/12/24 14:11:02;;;;;;;4.28;2.98;;;15.50;99.90;;;;;;1926118;72;22138;-80
2022/12/24 14:14:28;;;;;;;3.10;2.80;;;15.50;99.90;;;;;;1891229;75;21192;-79
2022/12/24 14:17:25;;;;;;;3.60;2.60;;;15.50;99.90;;;;;;1853064;76;21536;-80
2022/12/24 14:20:17;;;;;;;3.02;2.72;;;15.50;99.90;;;;;;1895211;75;21102;-80
2022/12/24 14:25:49;;;;;;;4.03;2.37;;;15.50;99.90;;;;;;1958843;72;22265;-80
2022/12/24 14:31:19;;;;;;;3.42;2.50;;;15.40;99.90;;;;;;1941777;72;22208;-80
2022/12/24 14:36:53;;;;;;;2.72;2.10;;;15.40;99.90;;;;;;1952874;72;22179;-81
2022/12/24 14:39:55;;;;;;;2.83;2.40;;;15.40;99.90;;;;;;1911644;75;21102;-79
2022/12/24 14:42:44;;;;;;;3.60;2.75;;;15.30;99.90;;;;;;1902074;75;21200;-81
2022/12/24 14:51:05;;;;;;;4.37;3.10;;;15.30;99.90;;;;;;1950346;72;22231;-79
2022/12/24 14:54:06;;;;;;;3.00;2.50;;;15.20;99.90;;;;;;1908674;74;21168;-80
2022/12/24 14:57:21;;;;;;;3.10;2.80;;;15.10;99.90;;;;;;1884053;75;22091;-80
2022/12/24 15:03:14;;;;;;;3.77;2.77;;;14.90;99.90;;;;;;1959621;72;22253;-81
2022/12/24 15:06:10;;;;;;;2.90;2.47;;;14.90;99.90;;;;;;1937540;73;21595;-81
2022/12/24 15:09:02;;;;;;;3.65;3.00;;;14.80;99.90;;;;;;1933933;73;21608;-81
2022/12/24 15:11:56;;;;;;;2.95;2.70;;;14.70;99.90;;;;;;1941702;73;21129;-80
2022/12/24 15:17:27;;;;;;;4.28;3.00;;;14.60;99.90;;;;;;1947113;72;22170;-81
2022/12/24 15:20:22;;;;;;;3.98;3.50;;;14.60;99.90;;;;;;1889387;75;21143;-79
2022/12/24 15:23:20;;;;;;;3.80;3.00;;;14.50;99.90;;;;;;1901917;75;21175;-81
2022/12/24 15:28:57;;;;;;;4.97;2.58;;;14.40;99.90;;;;;;1951420;72;22277;-81
2022/12/24 15:31:55;;;;;;;3.45;2.65;;;14.40;99.90;;;;;;1914636;75;21167;-80
2022/12/24 15:34:48;;;;;;;3.62;2.50;;;14.30;99.90;;;;;;1914393;75;21163;-80
2022/12/24 15:37:41;;;;;;;2.67;2.37;;;14.20;99.90;;;;;;1905853;75;21205;-79
2022/12/24 15:40:33;;;;;;;3.62;2.37;;;14.20;99.90;;;;;;1882420;75;21209;-79
2022/12/24 15:43:26;;;;;;;3.30;2.50;;;14.10;99.90;;;;;;1915145;75;21047;-79
2022/12/24 15:46:23;;;;;;;3.10;2.77;;;14.10;99.90;;;;;;1915549;75;21625;-80
2022/12/24 15:52:03;;;;;;;3.47;2.70;;;13.90;99.90;;;;;;1936198;72;23493;-80
2022/12/24 15:54:54;;;;;;;3.47;2.70;;;13.90;99.90;;;;;;1897081;75;21169;-80
2022/12/24 15:57:48;;;;;;;3.42;2.90;;;13.80;99.90;;;;;;1897036;75;21223;-81
2022/12/24 16:00:41;;;;;;;5.08;3.70;;;13.80;99.90;;;;;;1891308;75;21581;-80
2022/12/24 16:03:33;;;;;;;4.08;3.27;;;13.70;99.90;;;;;;1899898;75;21164;-80
2022/12/24 16:06:26;;;;;;;4.35;3.40;;;13.70;99.90;;;;;;1892866;75;21147;-80
2022/12/24 16:09:42;;;;;;;5.78;4.10;;;13.60;99.90;;;;;;1905406;75;21123;-80
2022/12/24 16:12:43;;;;;;;8.05;4.42;;;13.50;99.90;;;;;;1885665;75;21593;-80
2022/12/24 16:15:35;;;;;;;5.78;4.05;;;13.50;99.90;;;;;;1913734;75;21151;-79
2022/12/24 16:18:29;;;;;;;4.95;4.45;;;13.40;99.90;;;;;;1900787;75;21677;-79
2022/12/24 16:21:24;;;;;;;6.10;4.37;;;13.30;99.90;;;;;;1903307;75;21043;-80
2022/12/24 16:26:55;;;;;;;4.62;4.15;;;13.20;99.90;;;;;;1946723;72;22172;-81
2022/12/24 16:29:46;;;;;;;6.78;5.00;;;13.10;99.90;;;;;;1917157;73;21129;-82
2022/12/24 16:32:38;;;;;;;5.83;5.10;;;13.10;99.90;;;;;;1933258;73;21139;-81
2022/12/24 16:35:35;;;;;;;6.03;5.12;;;13.00;99.90;;;;;;1922093;73;21193;-80
2022/12/24 16:41:07;;;;;;;6.53;5.58;;;13.00;99.90;;;;;;1947487;72;22718;-81
2022/12/24 16:59:43;;;;;;;7.15;5.00;;;12.60;99.90;;;;;;1941223;72;22625;-81
2022/12/24 17:02:34;;;;;;;6.28;5.17;;;12.60;99.90;;;;;;1894357;74;21106;-80
2022/12/24 17:05:26;;;;;;;7.37;5.62;;;12.60;99.90;;;;;;1910854;75;21474;-79
2022/12/24 17:08:17;;;;;;;7.83;6.28;;;12.60;99.90;;;;;;1850617;76;21149;-80
2022/12/24 17:11:09;;;;;;;9.03;7.03;;;12.60;99.90;;;;;;1899169;75;21223;-80
2022/12/24 17:14:01;;;;;;;9.68;5.83;;;12.60;99.90;;;;;;1879811;75;21087;-80
2022/12/24 17:16:54;;;;;;;6.40;5.12;;;12.50;99.90;;;;;;1905020;75;21204;-80
2022/12/24 17:19:46;;;;;;;8.48;5.42;;;12.50;99.90;;;;;;1880346;75;21084;-81
2022/12/24 17:22:38;;;;;;;7.72;5.70;;;12.50;99.90;;;;;;1884329;75;21087;-79
2022/12/24 17:25:30;;;;;;;7.83;5.92;;;12.40;99.90;;;;;;1898168;75;21516;-80
2022/12/24 17:28:21;;;;;;;9.58;6.72;;;12.40;99.90;;;;;;1906481;75;21094;-80
2022/12/24 17:31:15;;;;;;;8.08;6.87;;;12.30;99.90;;;;;;1913490;75;21135;-81
2022/12/24 17:36:46;;;;;;;7.42;6.25;;;12.30;99.90;;;;;;1940768;72;22440;-81
2022/12/24 17:39:37;;;;;;;10.48;7.45;;;12.30;99.90;;;;;;1902238;75;21130;-80
2022/12/24 17:42:29;;;;;;;7.53;6.72;;;12.30;99.90;;;;;;1916999;75;21090;-80
2022/12/24 17:45:20;;;;;;;8.88;7.40;;;12.30;99.90;;;;;;1903026;74;21142;-81
2022/12/24 17:50:51;;;;;;;7.72;6.67;;;12.20;99.90;;;;;;1947105;72;22150;-80
2022/12/24 17:56:20;;;;;;;8.58;7.37;;;12.10;99.90;;;;;;1940776;72;22689;-81
2022/12/24 18:01:51;;;;;;;9.33;8.18;;;12.00;99.90;;;;;;1956503;72;22165;-80
2022/12/24 18:04:42;;;;;;;9.63;8.38;;;12.00;99.90;;;;;;1921884;73;21109;-80
2022/12/24 18:07:33;;;;;;;12.18;9.18;;;11.90;99.90;;;;;;1931021;73;21193;-79
2022/12/24 18:10:25;;;;;;;10.00;9.00;;;11.90;99.90;;;;;;1918678;73;21142;-81
2022/12/24 18:15:57;;;;;;;12.18;10.38;;;11.90;99.90;;;;;;1929938;72;22674;-79
2022/12/24 18:21:30;;;;;;;18.98;12.13;;;11.90;99.90;;;;;;1931994;72;22169;-81
2022/12/24 18:27:04;;;;;;;14.73;11.00;;;11.80;99.90;;;;;;1942913;72;22252;-81
2022/12/24 18:29:56;;;;;;;13.45;10.43;;;11.80;99.90;;;;;;1907445;75;21627;-81
2022/12/24 18:35:28;;;;;;;11.83;10.32;;;11.80;99.90;;;;;;1930200;72;22208;-81
2022/12/24 18:38:19;;;;;;;10.98;9.78;;;11.70;99.90;;;;;;1914620;75;21219;-80
2022/12/24 18:41:12;;;;;;;11.03;9.25;;;11.70;99.90;;;;;;1903384;75;21090;-80
2022/12/24 18:44:03;;;;;;;10.53;9.23;;;11.70;99.90;;;;;;1902912;73;21184;-80
2022/12/24 18:46:55;;;;;;;13.05;9.65;;;11.70;99.90;;;;;;1905212;75;21203;-80
2022/12/24 18:52:30;;;;;;;14.28;10.55;;;11.60;99.90;;;;;;1956268;72;22247;-81
2022/12/24 18:55:19;;;;;;;13.13;10.80;;;11.60;99.90;;;;;;1894047;75;21204;-80
2022/12/24 19:00:49;;;;;;;15.90;12.13;;;11.60;99.90;;;;;;1941716;72;22763;-81
2022/12/24 19:06:23;;;;;;;13.15;11.60;;;11.50;99.90;;;;;;1952981;72;22198;-79
2022/12/24 19:09:14;;;;;;;15.40;11.55;;;11.50;99.90;;;;;;1892661;74;21146;-80
2022/12/24 19:12:06;;;;;;;16.12;12.43;;;11.50;99.90;;;;;;1884576;75;21084;-79
2022/12/24 19:17:37;;;;;;;15.03;11.53;;;11.40;99.90;;;;;;1943424;72;22206;-81